createdAt,value
2018-04-19T00:02:25.864Z,16.78
2018-04-19T00:04:53.845Z,16.75
2018-04-19T00:07:20.992Z,16.78
2018-04-19T00:09:48.097Z,16.77
2018-04-19T00:12:16.004Z,16.76
2018-04-19T00:14:42.998Z,16.79
2018-04-19T00:17:09.957Z,16.71
2018-04-19T00:19:37.514Z,16.70
2018-04-19T00:22:05.747Z,16.66
2018-04-19T00:24:32.323Z,16.65
2018-04-19T00:27:00.023Z,16.65
2018-04-19T00:29:28.660Z,16.64
2018-04-19T00:31:55.606Z,16.65
2018-04-19T00:34:22.495Z,16.63
2018-04-19T00:36:49.520Z,16.60
2018-04-19T00:39:18.063Z,16.62
2018-04-19T00:41:46.243Z,16.59
2018-04-19T00:44:13.406Z,16.56
2018-04-19T00:46:40.558Z,16.56
2018-04-19T00:49:07.341Z,16.54
2018-04-19T00:51:35.967Z,16.39
2018-04-19T00:54:03.394Z,16.20
2018-04-19T00:56:31.049Z,16.10
2018-04-19T00:58:58.092Z,16.01
2018-04-19T01:01:25.217Z,15.79
2018-04-19T01:03:52.057Z,15.79
2018-04-19T01:06:20.637Z,15.77
2018-04-19T01:08:48.984Z,15.81
2018-04-19T01:11:16.713Z,15.51
2018-04-19T01:13:43.898Z,15.36
2018-04-19T01:16:10.694Z,15.46
2018-04-19T01:18:38.043Z,15.58
2018-04-19T01:21:07.410Z,15.70
2018-04-19T01:23:34.587Z,15.81
2018-04-19T01:26:02.260Z,15.69
2018-04-19T01:28:30.449Z,15.72
2018-04-19T01:33:32.727Z,15.75
2018-04-19T01:36:12.143Z,15.83
2018-04-19T01:38:40.673Z,15.78
2018-04-19T01:41:08.073Z,15.86
2018-04-19T01:43:35.599Z,15.92
2018-04-19T01:46:02.772Z,15.96
2018-04-19T01:48:29.887Z,16.03
2018-04-19T01:50:57.245Z,16.00
2018-04-19T01:53:24.934Z,15.93
2018-04-19T01:55:51.949Z,15.94
2018-04-19T01:58:20.905Z,15.98
2018-04-19T02:00:51.597Z,16.04
2018-04-19T02:03:19.437Z,16.12
2018-04-19T02:05:46.492Z,16.13
2018-04-19T02:08:13.308Z,16.10
2018-04-19T02:10:40.732Z,16.04
2018-04-19T02:13:07.871Z,15.92
2018-04-19T02:18:09.122Z,15.77
2018-04-19T02:20:36.411Z,15.73
2018-04-19T02:23:04.261Z,15.64
2018-04-19T02:25:31.508Z,15.64
2018-04-19T02:27:58.467Z,15.72
2018-04-19T02:30:26.491Z,15.73
2018-04-19T02:32:53.881Z,15.78
2018-04-19T02:35:20.708Z,15.81
2018-04-19T02:37:47.622Z,15.84
2018-04-19T02:40:15.258Z,15.88
2018-04-19T02:42:43.169Z,15.97
2018-04-19T02:45:11.222Z,15.99
2018-04-19T02:47:38.678Z,16.05
2018-04-19T02:50:07.055Z,16.06
2018-04-19T02:52:34.607Z,15.99
2018-04-19T02:55:02.318Z,16.02
2018-04-19T02:57:29.741Z,16.01
2018-04-19T02:59:58.198Z,16.02
2018-04-19T03:02:25.762Z,16.10
2018-04-19T03:04:53.111Z,16.10
2018-04-19T03:07:20.529Z,16.14
2018-04-19T03:09:47.295Z,15.92
2018-04-19T03:12:14.186Z,15.76
2018-04-19T03:14:41.201Z,15.57
2018-04-19T03:17:09.037Z,15.38
2018-04-19T03:19:37.972Z,15.36
2018-04-19T03:22:05.823Z,15.41
2018-04-19T03:24:32.929Z,15.29
2018-04-19T03:27:00.103Z,15.28
2018-04-19T03:29:27.692Z,15.12
2018-04-19T03:31:55.784Z,15.12
2018-04-19T03:34:25.569Z,14.93
2018-04-19T03:36:52.606Z,14.88
2018-04-19T03:39:20.126Z,14.92
2018-04-19T03:41:47.452Z,15.02
2018-04-19T03:44:15.525Z,14.93
2018-04-19T03:46:42.874Z,14.92
2018-04-19T03:49:10.557Z,15.12
2018-04-19T03:51:37.435Z,15.00
2018-04-19T03:54:04.323Z,14.90
2018-04-19T03:56:31.384Z,14.78
2018-04-19T03:58:59.025Z,14.79
2018-04-19T04:03:59.695Z,14.69
2018-04-19T04:06:26.783Z,14.53
2018-04-19T04:08:54.359Z,14.40
2018-04-19T04:11:22.598Z,14.34
2018-04-19T04:16:44.342Z,13.92
2018-04-19T04:19:23.794Z,14.00
2018-04-19T04:22:03.243Z,14.21
2018-04-19T04:24:30.211Z,14.30
2018-04-19T04:26:57.717Z,14.34
2018-04-19T04:29:25.087Z,14.37
2018-04-19T04:31:52.421Z,14.49
2018-04-19T04:34:19.444Z,14.36
2018-04-19T04:36:45.932Z,14.45
2018-04-19T04:39:13.586Z,14.62
2018-04-19T04:41:40.248Z,14.80
2018-04-19T04:44:07.616Z,14.87
2018-04-19T04:49:34.105Z,14.78
2018-04-19T04:52:00.940Z,15.30
2018-04-19T04:54:27.753Z,15.22
2018-04-19T04:56:55.509Z,14.99
2018-04-19T04:59:22.480Z,14.98
2018-04-19T05:01:49.822Z,15.07
2018-04-19T05:04:16.516Z,15.25
2018-04-19T05:06:44.400Z,15.26
2018-04-19T05:09:11.391Z,15.35
2018-04-19T05:11:38.610Z,15.51
2018-04-19T05:14:05.867Z,15.47
2018-04-19T05:16:33.742Z,15.61
2018-04-19T05:19:01.325Z,15.76
2018-04-19T05:21:28.790Z,15.86
2018-04-19T05:23:56.649Z,15.81
2018-04-19T05:26:24.077Z,16.01
2018-04-19T05:28:51.378Z,15.94
2018-04-19T05:31:18.749Z,15.94
2018-04-19T05:33:46.268Z,15.91
2018-04-19T05:36:13.295Z,16.06
2018-04-19T05:38:41.087Z,16.08
2018-04-19T05:41:08.535Z,15.98
2018-04-19T05:43:36.151Z,15.97
2018-04-19T05:46:03.026Z,15.85
2018-04-19T05:48:30.153Z,15.81
2018-04-19T05:50:57.480Z,15.87
2018-04-19T05:53:25.540Z,15.91
2018-04-19T05:55:52.752Z,16.09
2018-04-19T05:58:19.717Z,16.28
2018-04-19T06:00:47.414Z,16.22
2018-04-19T06:03:14.938Z,16.22
2018-04-19T06:05:42.062Z,16.06
2018-04-19T06:08:10.008Z,15.84
2018-04-19T06:10:37.273Z,16.06
2018-04-19T06:13:04.138Z,16.15
2018-04-19T06:15:33.347Z,16.22
2018-04-19T06:18:00.291Z,16.40
2018-04-19T06:20:27.182Z,16.39
2018-04-19T06:22:54.798Z,16.38
2018-04-19T06:25:21.806Z,16.53
2018-04-19T06:27:48.572Z,16.68
2018-04-19T06:30:15.133Z,16.83
2018-04-19T06:32:42.026Z,16.64
2018-04-19T06:35:10.374Z,16.84
2018-04-19T06:37:37.352Z,16.57
2018-04-19T06:40:05.430Z,16.77
2018-04-19T06:42:32.983Z,16.76
2018-04-19T06:45:00.737Z,16.81
2018-04-19T06:47:27.850Z,16.98
2018-04-19T06:49:54.769Z,16.78
2018-04-19T06:52:22.221Z,16.73
2018-04-19T06:54:50.015Z,16.97
2018-04-19T06:57:16.707Z,17.07
2018-04-19T06:59:44.858Z,17.06
2018-04-19T07:02:11.911Z,17.01
2018-04-19T07:04:38.651Z,17.13
2018-04-19T07:07:05.808Z,17.25
2018-04-19T07:09:32.592Z,17.03
2018-04-19T07:11:59.462Z,16.94
2018-04-19T07:14:26.866Z,17.13
2018-04-19T07:16:53.540Z,17.34
2018-04-19T07:19:20.417Z,17.45
2018-04-19T07:21:48.425Z,17.63
2018-04-19T07:24:16.318Z,17.70
2018-04-19T07:26:43.709Z,17.88
2018-04-19T07:29:11.173Z,17.88
2018-04-19T07:31:38.767Z,17.81
2018-04-19T07:34:06.180Z,17.92
2018-04-19T07:36:33.402Z,17.76
2018-04-19T07:39:00.894Z,17.99
2018-04-19T07:41:27.976Z,18.13
2018-04-19T07:43:56.508Z,18.27
2018-04-19T07:46:23.515Z,18.34
2018-04-19T07:48:51.359Z,18.10
2018-04-19T07:51:18.760Z,18.03
2018-04-19T07:53:46.550Z,18.03
2018-04-19T07:56:13.529Z,17.91
2018-04-19T07:58:40.804Z,18.12
2018-04-19T08:01:08.125Z,18.13
2018-04-19T08:03:35.020Z,18.24
2018-04-19T08:06:02.005Z,18.34
2018-04-19T08:08:28.986Z,18.18
2018-04-19T08:10:56.162Z,17.95
2018-04-19T08:13:23.450Z,17.91
2018-04-19T08:15:50.390Z,18.10
2018-04-19T08:18:17.540Z,18.19
2018-04-19T08:20:44.403Z,18.19
2018-04-19T08:23:11.357Z,18.39
2018-04-19T08:25:38.843Z,18.46
2018-04-19T08:28:05.833Z,18.56
2018-04-19T08:30:32.645Z,18.67
2018-04-19T08:32:59.876Z,18.59
2018-04-19T08:35:26.748Z,18.67
2018-04-19T08:37:53.883Z,18.78
2018-04-19T08:40:21.149Z,18.79
2018-04-19T08:42:48.934Z,18.76
2018-04-19T08:45:16.172Z,18.75
2018-04-19T08:47:43.285Z,18.75
2018-04-19T08:50:17.112Z,18.87
2018-04-19T08:52:44.301Z,18.83
2018-04-19T08:55:11.485Z,18.96
2018-04-19T08:57:38.901Z,18.92
2018-04-19T09:00:06.695Z,18.96
2018-04-19T09:02:34.696Z,19.07
2018-04-19T09:05:01.529Z,19.14
2018-04-19T09:07:28.488Z,18.95
2018-04-19T09:09:55.883Z,19.13
2018-04-19T09:12:23.805Z,19.20
2018-04-19T09:14:51.078Z,19.22
2018-04-19T09:17:19.427Z,19.22
2018-04-19T09:19:46.782Z,19.32
2018-04-19T09:22:13.644Z,19.24
2018-04-19T09:24:40.331Z,19.37
2018-04-19T09:27:07.466Z,19.58
2018-04-19T09:29:34.411Z,19.52
2018-04-19T09:32:02.606Z,19.31
2018-04-19T09:34:31.244Z,19.39
2018-04-19T09:36:58.672Z,19.56
2018-04-19T09:39:25.870Z,19.53
2018-04-19T09:41:52.499Z,19.62
2018-04-19T09:44:21.417Z,19.69
2018-04-19T09:46:48.085Z,19.81
2018-04-19T09:49:15.402Z,19.91
2018-04-19T09:51:42.718Z,19.92
2018-04-19T09:54:10.763Z,20.00
2018-04-19T09:56:38.741Z,19.96
2018-04-19T09:59:11.238Z,19.75
2018-04-19T10:01:44.140Z,19.86
2018-04-19T10:04:13.576Z,19.99
2018-04-19T10:06:40.621Z,20.08
2018-04-19T10:09:07.356Z,20.12
2018-04-19T10:11:34.469Z,20.30
2018-04-19T10:14:01.443Z,20.32
2018-04-19T10:16:28.564Z,20.15
2018-04-19T10:18:55.713Z,20.18
2018-04-19T10:21:22.836Z,20.30
2018-04-19T10:23:49.567Z,20.32
2018-04-19T10:26:16.549Z,20.30
2018-04-19T10:28:43.445Z,20.47
2018-04-19T10:31:11.313Z,20.62
2018-04-19T10:33:39.961Z,20.64
2018-04-19T10:36:06.844Z,20.76
2018-04-19T10:38:35.343Z,20.84
2018-04-19T10:41:02.812Z,20.94
2018-04-19T10:43:29.518Z,20.99
2018-04-19T10:45:56.141Z,21.02
2018-04-19T10:48:22.596Z,21.12
2018-04-19T10:50:49.728Z,21.05
2018-04-19T10:53:17.156Z,21.10
2018-04-19T10:55:43.787Z,21.19
2018-04-19T10:58:10.945Z,21.12
2018-04-19T11:00:38.532Z,21.00
2018-04-19T11:03:05.576Z,20.91
2018-04-19T11:05:32.891Z,20.99
2018-04-19T11:07:59.672Z,20.94
2018-04-19T11:10:26.966Z,21.00
2018-04-19T11:12:53.574Z,20.83
2018-04-19T11:15:20.433Z,20.91
2018-04-19T11:17:47.694Z,21.02
2018-04-19T11:20:14.242Z,21.13
2018-04-19T11:22:41.135Z,21.21
2018-04-19T11:25:07.930Z,21.26
2018-04-19T11:27:36.428Z,21.19
2018-04-19T11:30:03.416Z,21.26
2018-04-19T11:32:30.269Z,21.38
2018-04-19T11:34:56.955Z,21.31
2018-04-19T11:37:24.405Z,21.21
2018-04-19T11:39:50.965Z,21.30
2018-04-19T11:42:18.072Z,21.20
2018-04-19T11:44:45.285Z,21.26
2018-04-19T11:47:12.060Z,21.25
2018-04-19T11:49:39.020Z,21.37
2018-04-19T11:52:06.465Z,21.47
2018-04-19T11:54:35.193Z,21.61
2018-04-19T11:57:02.328Z,21.54
2018-04-19T11:59:29.498Z,21.65
2018-04-19T12:01:56.537Z,21.74
2018-04-19T12:04:23.311Z,21.64
2018-04-19T12:06:50.050Z,21.68
2018-04-19T12:09:17.263Z,21.72
2018-04-19T12:11:44.559Z,21.74
2018-04-19T12:14:11.171Z,21.53
2018-04-19T12:16:37.992Z,21.51
2018-04-19T12:19:05.121Z,21.44
2018-04-19T12:21:31.664Z,21.35
2018-04-19T12:23:59.328Z,21.25
2018-04-19T12:26:26.736Z,21.30
2018-04-19T12:28:54.040Z,21.32
2018-04-19T12:31:20.874Z,21.46
2018-04-19T12:33:47.643Z,21.59
2018-04-19T12:36:15.113Z,21.68
2018-04-19T12:38:41.652Z,21.69
2018-04-19T12:41:08.687Z,21.75
2018-04-19T12:43:35.984Z,21.72
2018-04-19T12:46:02.777Z,21.72
2018-04-19T12:48:29.353Z,21.82
2018-04-19T12:50:56.644Z,21.79
2018-04-19T12:53:23.706Z,21.71
2018-04-19T12:55:50.442Z,21.73
2018-04-19T12:58:18.125Z,21.70
2018-04-19T13:00:44.917Z,21.58
2018-04-19T13:03:12.005Z,21.59
2018-04-19T13:05:39.715Z,21.60
2018-04-19T13:08:06.687Z,21.56
2018-04-19T13:10:34.051Z,21.53
2018-04-19T13:13:00.455Z,21.50
2018-04-19T13:15:27.157Z,21.59
2018-04-19T13:17:54.365Z,21.64
2018-04-19T13:20:22.110Z,21.76
2018-04-19T13:22:49.024Z,21.82
2018-04-19T13:25:15.841Z,21.75
2018-04-19T13:27:42.438Z,21.75
2018-04-19T13:30:09.669Z,21.81
2018-04-19T13:32:36.581Z,21.85
2018-04-19T13:35:03.559Z,21.89
2018-04-19T13:37:30.953Z,22.01
2018-04-19T13:39:57.796Z,22.05
2018-04-19T13:42:24.636Z,22.10
2018-04-19T13:44:51.377Z,22.12
2018-04-19T13:47:17.916Z,21.98
2018-04-19T13:49:44.336Z,21.93
2018-04-19T13:52:11.593Z,21.88
2018-04-19T13:54:38.685Z,21.77
2018-04-19T13:57:05.644Z,21.64
2018-04-19T13:59:32.328Z,21.65
2018-04-19T14:01:58.829Z,21.55
2018-04-19T14:04:25.621Z,21.59
2018-04-19T14:06:52.968Z,21.60
2018-04-19T14:09:20.216Z,21.66
2018-04-19T14:11:46.991Z,21.55
2018-04-19T14:14:13.937Z,21.31
2018-04-19T14:16:40.991Z,21.20
2018-04-19T14:19:08.025Z,21.15
2018-04-19T14:21:35.517Z,21.26
2018-04-19T14:24:02.492Z,21.40
2018-04-19T14:26:29.152Z,21.49
2018-04-19T14:28:56.184Z,21.38
2018-04-19T14:31:25.433Z,21.38
2018-04-19T14:33:52.869Z,21.33
2018-04-19T14:36:19.717Z,21.36
2018-04-19T14:38:46.539Z,21.46
2018-04-19T14:41:13.409Z,21.38
2018-04-19T14:43:40.345Z,21.23
2018-04-19T14:46:07.170Z,21.24
2018-04-19T14:48:34.918Z,21.19
2018-04-19T14:51:02.284Z,21.26
2018-04-19T14:53:29.372Z,21.20
2018-04-19T14:55:56.533Z,21.09
2018-04-19T14:58:23.771Z,21.14
2018-04-19T15:00:51.054Z,21.27
2018-04-19T15:03:17.644Z,21.21
2018-04-19T15:05:44.110Z,21.18
2018-04-19T15:08:10.851Z,21.17
2018-04-19T15:10:37.407Z,21.16
2018-04-19T15:13:04.429Z,21.16
2018-04-19T15:15:31.463Z,21.31
2018-04-19T15:17:58.002Z,21.29
2018-04-19T15:20:24.882Z,21.14
2018-04-19T15:22:51.494Z,20.99
2018-04-19T15:25:18.338Z,21.00
2018-04-19T15:27:46.927Z,21.11
2018-04-19T15:30:14.487Z,21.15
2018-04-19T15:32:41.552Z,21.14
2018-04-19T15:35:08.550Z,21.18
2018-04-19T15:37:35.414Z,21.28
2018-04-19T15:40:02.142Z,21.30
2018-04-19T15:42:28.783Z,21.24
2018-04-19T15:44:55.979Z,21.28
2018-04-19T15:47:22.828Z,21.09
2018-04-19T15:49:49.556Z,21.15
2018-04-19T15:52:16.196Z,21.13
2018-04-19T15:54:42.960Z,21.13
2018-04-19T15:57:10.158Z,21.21
2018-04-19T15:59:37.086Z,21.17
2018-04-19T16:02:03.628Z,21.20
2018-04-19T16:04:32.577Z,21.12
2018-04-19T16:06:59.256Z,21.01
2018-04-19T16:09:25.904Z,21.03
2018-04-19T16:11:53.083Z,20.92
2018-04-19T16:14:19.196Z,20.96
2018-04-19T16:16:46.075Z,20.77
2018-04-19T16:19:12.508Z,20.74
2018-04-19T16:21:39.483Z,20.81
2018-04-19T16:24:06.195Z,20.81
2018-04-19T16:26:33.171Z,20.79
2018-04-19T16:29:00.267Z,20.86
2018-04-19T16:31:27.472Z,20.71
2018-04-19T16:33:55.131Z,20.59
2018-04-19T16:36:21.906Z,20.56
2018-04-19T16:38:48.613Z,20.65
2018-04-19T16:41:15.727Z,20.68
2018-04-19T16:43:43.766Z,20.54
2018-04-19T16:46:10.687Z,20.49
2018-04-19T16:48:41.609Z,20.46
2018-04-19T16:51:08.550Z,20.47
2018-04-19T16:53:35.749Z,20.53
2018-04-19T16:56:02.643Z,20.62
2018-04-19T16:58:29.319Z,20.60
2018-04-19T17:00:56.369Z,20.68
2018-04-19T17:03:23.393Z,20.63
2018-04-19T17:05:50.187Z,20.61
2018-04-19T17:08:17.210Z,20.55
2018-04-19T17:10:43.991Z,20.49
2018-04-19T17:13:10.860Z,20.46
2018-04-19T17:15:38.582Z,20.59
2018-04-19T17:18:06.104Z,20.46
2018-04-19T17:20:33.129Z,20.40
2018-04-19T17:22:59.867Z,20.32
2018-04-19T17:25:26.683Z,20.21
2018-04-19T17:27:53.212Z,20.25
2018-04-19T17:30:20.184Z,20.26
2018-04-19T17:32:47.465Z,20.19
2018-04-19T17:35:14.948Z,20.19
2018-04-19T17:37:42.490Z,20.16
2018-04-19T17:40:09.670Z,20.23
2018-04-19T17:42:37.737Z,20.23
2018-04-19T17:45:04.528Z,20.14
2018-04-19T17:47:31.898Z,20.10
2018-04-19T17:49:59.263Z,20.09
2018-04-19T17:52:26.324Z,20.18
2018-04-19T17:54:54.228Z,20.16
2018-04-19T17:57:22.753Z,20.21
2018-04-19T17:59:49.698Z,20.25
2018-04-19T18:02:16.750Z,20.27
2018-04-19T18:04:44.786Z,20.19
2018-04-19T18:07:11.950Z,20.16
2018-04-19T18:09:38.619Z,20.17
2018-04-19T18:12:05.842Z,20.10
2018-04-19T18:14:33.340Z,20.11
2018-04-19T18:17:00.155Z,20.11
2018-04-19T18:19:27.356Z,20.12
2018-04-19T18:21:54.460Z,20.12
2018-04-19T18:24:21.854Z,20.12
2018-04-19T18:26:48.755Z,20.17
2018-04-19T18:29:15.804Z,20.09
2018-04-19T18:31:43.654Z,19.99
2018-04-19T18:34:11.567Z,19.99
2018-04-19T18:36:38.297Z,19.84
2018-04-19T18:39:06.226Z,19.70
2018-04-19T18:41:32.982Z,19.73
2018-04-19T18:44:00.016Z,19.58
2018-04-19T18:46:27.585Z,19.64
2018-04-19T18:48:54.496Z,19.52
2018-04-19T18:51:21.447Z,19.41
2018-04-19T18:53:48.082Z,19.44
2018-04-19T18:56:15.202Z,19.49
2018-04-19T18:58:42.902Z,19.50
2018-04-19T19:01:09.592Z,19.58
2018-04-19T19:03:36.599Z,19.33
2018-04-19T19:06:03.784Z,19.33
2018-04-19T19:08:30.477Z,19.43
2018-04-19T19:10:57.508Z,19.36
2018-04-19T19:13:25.383Z,19.41
2018-04-19T19:18:58.057Z,19.43
2018-04-19T19:21:28.924Z,19.42
2018-04-19T19:23:56.877Z,19.45
2018-04-19T19:26:23.692Z,19.44
2018-04-19T19:28:51.591Z,19.34
2018-04-19T19:31:18.314Z,19.46
2018-04-19T19:33:44.937Z,19.55
2018-04-19T19:36:12.276Z,19.58
2018-04-19T19:38:39.301Z,19.47
2018-04-19T19:41:07.124Z,19.46
2018-04-19T19:43:34.224Z,19.39
2018-04-19T19:46:01.348Z,19.35
2018-04-19T19:48:28.885Z,19.33
2018-04-19T19:50:56.548Z,19.18
2018-04-19T19:53:23.288Z,19.19
2018-04-19T19:55:50.427Z,19.09
2018-04-19T19:58:17.623Z,19.08
2018-04-19T20:00:44.815Z,18.97
2018-04-19T20:03:11.985Z,19.01
2018-04-19T20:05:39.990Z,19.07
2018-04-19T20:08:06.876Z,19.13
2018-04-19T20:10:33.672Z,19.25
2018-04-19T20:13:02.139Z,19.17
2018-04-19T20:15:28.697Z,18.86
2018-04-19T20:17:55.229Z,18.74
2018-04-19T20:20:22.079Z,18.68
2018-04-19T20:22:49.783Z,18.78
2018-04-19T20:25:16.380Z,18.79
2018-04-19T20:27:43.341Z,18.65
2018-04-19T20:30:10.941Z,18.59
2018-04-19T20:32:38.124Z,18.62
2018-04-19T20:35:05.898Z,18.68
2018-04-19T20:37:34.579Z,18.69
2018-04-19T20:40:01.245Z,18.81
2018-04-19T20:42:27.879Z,18.96
2018-04-19T20:44:54.765Z,18.84
2018-04-19T20:47:22.058Z,18.79
2018-04-19T20:49:49.033Z,18.89
2018-04-19T20:52:16.647Z,18.82
2018-04-19T20:54:43.507Z,18.63
2018-04-19T20:57:10.966Z,18.51
2018-04-19T20:59:38.174Z,18.44
2018-04-19T21:02:04.889Z,18.43
2018-04-19T21:04:31.696Z,18.38
2018-04-19T21:06:59.806Z,18.29
2018-04-19T21:09:27.560Z,18.24
2018-04-19T21:11:54.744Z,18.32
2018-04-19T21:14:22.216Z,18.42
2018-04-19T21:16:49.834Z,18.52
2018-04-19T21:19:17.322Z,18.59
2018-04-19T21:21:44.706Z,18.67
2018-04-19T21:24:11.857Z,18.74
2018-04-19T21:26:39.249Z,18.80
2018-04-19T21:29:06.821Z,18.89
2018-04-19T21:31:34.703Z,18.73
2018-04-19T21:34:01.803Z,18.60
2018-04-19T21:36:29.219Z,18.48
2018-04-19T21:38:56.115Z,18.47
2018-04-19T21:41:23.006Z,18.52
2018-04-19T21:43:50.111Z,18.60
2018-04-19T21:46:17.664Z,18.54
2018-04-19T21:48:44.362Z,18.57
2018-04-19T21:51:11.482Z,18.58
2018-04-19T21:53:39.009Z,18.62
2018-04-19T21:56:06.354Z,18.69
2018-04-19T21:58:33.439Z,18.68
2018-04-19T22:01:00.264Z,18.72
2018-04-19T22:03:27.280Z,18.76
2018-04-19T22:05:54.412Z,18.58
2018-04-19T22:08:21.446Z,18.61
2018-04-19T22:10:49.469Z,18.59
2018-04-19T22:13:16.344Z,18.49
2018-04-19T22:15:43.744Z,18.48
2018-04-19T22:18:11.630Z,18.53
2018-04-19T22:20:39.076Z,18.56
2018-04-19T22:23:06.286Z,18.61
2018-04-19T22:25:34.718Z,18.64
2018-04-19T22:28:02.039Z,18.66
2018-04-19T22:30:29.474Z,18.65
2018-04-19T22:32:56.548Z,18.65
2018-04-19T22:35:23.393Z,18.68
2018-04-19T22:37:51.240Z,18.68
2018-04-19T22:40:18.615Z,18.70
2018-04-19T22:42:45.833Z,18.71
2018-04-19T22:45:13.592Z,18.74
2018-04-19T22:47:41.625Z,18.71
2018-04-19T22:50:09.207Z,18.71
2018-04-19T22:52:36.249Z,18.68
2018-04-19T22:55:04.585Z,18.69
2018-04-19T22:57:31.729Z,18.69
2018-04-19T22:59:58.981Z,18.66
2018-04-19T23:02:26.177Z,18.43
2018-04-19T23:04:54.024Z,17.98
2018-04-19T23:07:27.787Z,17.97
2018-04-19T23:09:55.544Z,17.84
2018-04-19T23:12:23.170Z,17.88
2018-04-19T23:14:50.826Z,17.92
2018-04-19T23:17:19.162Z,17.55
2018-04-19T23:19:46.155Z,17.61
2018-04-19T23:22:13.668Z,17.62
2018-04-19T23:24:41.614Z,17.65
2018-04-19T23:27:08.954Z,17.63
2018-04-19T23:29:36.180Z,17.71
2018-04-19T23:32:03.681Z,17.81
2018-04-19T23:34:31.760Z,17.88
2018-04-19T23:36:59.211Z,17.99
2018-04-19T23:39:26.499Z,18.04
2018-04-19T23:41:54.996Z,18.15
2018-04-19T23:44:22.934Z,18.16
2018-04-19T23:46:49.968Z,18.19
2018-04-19T23:49:17.430Z,18.22
2018-04-19T23:51:45.933Z,18.10
2018-04-19T23:54:13.355Z,17.97
2018-04-19T23:56:40.789Z,17.85
2018-04-19T23:59:07.923Z,17.78
